Time;durP1;ratioP1;P1;durP2;ratioP2;P2;SDS_P1;SDS_P2;PMS_P1;PMS_P2;Temp;Humidity;BMP_temperature;BMP_pressure;BME280_temperature;BME280_humidity;BME280_pressure;Samples;Min_cycle;Max_cycle;Signal;HPM_P1;HPM_P2
2023/06/05 00:01:39;;;;;;;6.90;2.58;;;;;;;18.44;100.00;100092.09;10418997;28;20053;-73
2023/06/05 00:06:40;;;;;;;8.10;2.70;;;;;;;18.57;100.00;100113.41;10419398;28;20473;-72
2023/06/05 00:11:41;;;;;;;6.22;3.05;;;;;;;18.42;100.00;100091.47;10418095;28;20049;-71
2023/06/05 00:16:42;;;;;;;8.75;3.10;;;;;;;18.57;100.00;100126.06;10418742;28;20041;-72
2023/06/05 00:21:43;;;;;;;8.90;3.22;;;;;;;18.64;100.00;100124.13;10418717;28;20505;-72
2023/06/05 00:26:43;;;;;;;5.85;2.55;;;;;;;18.61;100.00;100121.88;10418203;28;20045;-73
2023/06/05 00:31:45;;;;;;;7.30;2.53;;;;;;;18.56;100.00;100125.25;10417470;28;20068;-72
2023/06/05 00:36:50;;;;;;;9.82;2.75;;;;;;;18.47;100.00;100123.91;10417187;28;20044;-72
2023/06/05 00:41:51;;;;;;;6.55;2.80;;;;;;;18.46;100.00;100122.28;10418163;28;20405;-72
2023/06/05 00:46:52;;;;;;;8.05;2.80;;;;;;;18.41;100.00;100114.03;10415939;28;20041;-72
2023/06/05 00:51:53;;;;;;;30.83;3.45;;;;;;;18.53;100.00;100127.56;10417210;28;20041;-72
2023/06/05 00:56:55;;;;;;;15.68;3.90;;;;;;;18.28;100.00;100106.97;10416508;28;20049;-72
2023/06/05 01:01:56;;;;;;;9.35;3.70;;;;;;;18.47;100.00;100130.09;10416417;28;20115;-72
2023/06/05 01:06:57;;;;;;;12.75;3.83;;;;;;;18.47;100.00;100132.78;10416371;28;20049;-73
2023/06/05 01:12:08;;;;;;;7.93;3.38;;;;;;;18.52;100.00;100145.56;10415893;28;20042;-72
2023/06/05 01:17:10;;;;;;;8.27;2.88;;;;;;;18.34;100.00;100116.81;10415639;28;20040;-72
2023/06/05 01:22:12;;;;;;;7.57;3.17;;;;;;;18.42;100.00;100121.06;10415578;28;20464;-72
2023/06/05 01:27:38;;;;;;;5.85;2.97;;;;;;;18.67;100.00;100143.31;10415882;28;20409;-71
2023/06/05 01:33:07;;;;;;;11.00;2.90;;;;;;;18.68;100.00;100128.81;10415699;28;20079;-71
2023/06/05 01:38:10;;;;;;;10.38;2.67;;;;;;;18.16;100.00;100069.25;10414794;28;20421;-71
2023/06/05 01:43:12;;;;;;;7.28;2.78;;;;;;;18.11;100.00;100071.78;10414948;28;20099;-71
2023/06/05 01:48:14;;;;;;;10.73;3.50;;;;;;;18.69;100.00;100154.66;10397887;28;20038;-71
2023/06/05 01:53:16;;;;;;;8.38;3.20;;;;;;;18.78;100.00;100171.34;10414283;28;20037;-71
2023/06/05 01:58:17;;;;;;;8.18;3.53;;;;;;;18.33;100.00;100090.13;10414362;28;20048;-71
2023/06/05 02:03:18;;;;;;;6.88;3.30;;;;;;;18.83;100.00;100182.28;10414482;28;20128;-71
2023/06/05 02:08:22;;;;;;;11.68;4.18;;;;;;;18.62;100.00;100124.34;10413800;28;20080;-71
2023/06/05 02:13:24;;;;;;;6.25;3.65;;;;;;;18.97;100.00;100176.72;10414571;28;20099;-70
2023/06/05 02:18:25;;;;;;;10.82;3.92;;;;;;;19.05;100.00;100166.44;10413185;28;20060;-70
2023/06/05 02:23:26;;;;;;;8.65;4.50;;;;;;;19.06;100.00;100157.34;10413169;28;20122;-71
2023/06/05 02:28:27;;;;;;;10.95;4.15;;;;;;;19.04;100.00;100143.28;10413512;28;20124;-70
2023/06/05 02:33:27;;;;;;;10.73;5.07;;;;;;;19.16;100.00;100164.84;10413910;28;20049;-71
2023/06/05 02:38:28;;;;;;;8.30;4.72;;;;;;;19.19;100.00;100169.78;10413315;28;20090;-71
2023/06/05 02:43:29;;;;;;;7.07;5.03;;;;;;;19.04;100.00;100156.72;10426132;28;20045;-70
2023/06/05 02:48:30;;;;;;;11.07;4.80;;;;;;;18.91;100.00;100114.69;10440650;28;20055;-71
2023/06/05 02:53:30;;;;;;;8.55;5.53;;;;;;;19.31;100.00;100178.72;10453817;28;20037;-70
2023/06/05 02:58:33;;;;;;;7.30;5.50;;;;;;;19.47;100.00;100188.00;10454748;28;20504;-71
2023/06/05 03:03:34;;;;;;;8.75;5.00;;;;;;;19.50;100.00;100201.03;10453382;28;20132;-71
2023/06/05 03:08:36;;;;;;;9.30;4.65;;;;;;;19.05;100.00;100131.44;10453774;28;20053;-71
2023/06/05 03:13:37;;;;;;;8.77;5.22;;;;;;;19.43;100.00;100189.53;10441878;28;20417;-71
2023/06/05 03:18:37;;;;;;;8.77;6.20;;;;;;;19.53;100.00;100181.72;10421924;28;20091;-71
2023/06/05 03:23:38;;;;;;;15.98;8.38;;;;;;;19.76;100.00;100178.25;10419918;28;20041;-72
2023/06/05 03:28:39;;;;;;;8.38;4.88;;;;;;;19.53;100.00;100117.06;10429023;28;20052;-71
2023/06/05 03:33:39;;;;;;;10.18;6.65;;;;;;;20.09;100.00;100170.69;10430831;28;20117;-71
2023/06/05 03:38:40;;;;;;;9.90;5.90;;;;;;;19.69;100.00;100094.03;10429594;28;20041;-72
2023/06/05 03:43:41;;;;;;;9.75;5.35;;;;;;;20.15;100.00;100175.94;10421217;28;20747;-74
2023/06/05 03:48:43;;;;;;;8.38;5.47;;;;;;;20.09;100.00;100176.06;10426047;28;20076;-73
2023/06/05 03:53:44;;;;;;;6.65;5.22;;;;;;;20.09;100.00;100181.47;10415946;28;20045;-71
2023/06/05 03:58:48;;;;;;;6.53;5.80;;;;;;;20.17;100.00;100170.31;10437396;28;20045;-73
2023/06/05 04:03:48;;;;;;;8.17;6.60;;;;;;;20.27;100.00;100149.78;10430000;28;20783;-74
2023/06/05 04:08:52;;;;;;;9.20;4.93;;;;;;;20.41;100.00;100161.16;10428252;28;20300;-73
2023/06/05 04:13:55;;;;;;;5.53;3.92;;;;;;;20.19;100.00;100119.66;10436925;28;20044;-74
2023/06/05 04:18:56;;;;;;;;;;;;;;;20.99;100.00;100194.47;10446118;28;20048;-71
2023/06/05 04:23:57;;;;;;;6.82;4.10;;;;;;;21.07;100.00;100185.19;10455688;28;19923;-71
2023/06/05 04:28:57;;;;;;;5.22;3.45;;;;;;;21.01;100.00;100188.84;10453160;28;20033;-72
2023/06/05 04:33:58;;;;;;;10.00;4.43;;;;;;;20.86;100.00;100182.06;10450949;28;20041;-69
2023/06/05 04:39:01;;;;;;;7.22;3.88;;;;;;;21.01;100.00;100194.25;10449044;28;20502;-70
2023/06/05 04:44:02;;;;;;;5.00;4.00;;;;;;;21.39;100.00;100189.06;10453937;28;20045;-71
2023/06/05 04:49:04;;;;;;;5.38;3.72;;;;;;;21.66;100.00;100204.66;10446484;28;20489;-70
2023/06/05 04:54:05;;;;;;;7.53;4.25;;;;;;;21.53;100.00;100207.66;10428100;28;20136;-69
2023/06/05 04:59:06;;;;;;;8.07;3.40;;;;;;;21.01;100.00;100137.53;10416330;28;20516;-70
2023/06/05 05:04:07;;;;;;;5.40;4.03;;;;;;;21.43;100.00;100206.41;10414867;28;20132;-69
2023/06/05 05:09:08;;;;;;;5.43;3.55;;;;;;;21.56;99.89;100207.97;10415445;28;20080;-69
2023/06/05 05:14:09;;;;;;;4.38;3.20;;;;;;;22.06;98.50;100198.25;10415321;28;20493;-69
2023/06/05 05:19:10;;;;;;;8.50;4.20;;;;;;;22.06;97.52;100198.25;10416341;28;20037;-68
2023/06/05 05:24:11;;;;;;;6.13;3.13;;;;;;;22.05;97.28;100192.03;10397483;28;20048;-69
2023/06/05 05:29:12;;;;;;;8.15;3.67;;;;;;;22.21;95.72;100163.34;10415968;28;20040;-69
2023/06/05 05:34:13;;;;;;;5.57;3.00;;;;;;;22.32;94.08;100116.41;10415741;28;20052;-68
2023/06/05 05:39:14;;;;;;;3.80;2.90;;;;;;;22.72;93.20;100195.69;10432808;28;20036;-69
2023/06/05 05:44:15;;;;;;;4.15;2.90;;;;;;;22.96;91.86;100193.56;10415063;28;20049;-69
2023/06/05 05:49:16;;;;;;;5.07;2.83;;;;;;;22.74;89.55;100117.72;10415805;28;20370;-69
2023/06/05 05:54:17;;;;;;;3.55;2.35;;;;;;;23.20;88.78;100186.78;10414906;28;20048;-68
2023/06/05 05:59:18;;;;;;;5.25;2.63;;;;;;;23.23;89.13;100183.53;10414060;28;20099;-69
2023/06/05 06:04:19;;;;;;;4.20;2.65;;;;;;;22.84;88.51;100109.69;10396131;28;20131;-70
2023/06/05 06:09:20;;;;;;;3.80;2.50;;;;;;;23.16;86.41;100104.38;10413507;28;20107;-69
2023/06/05 06:14:21;;;;;;;3.97;2.45;;;;;;;23.39;86.72;100194.53;10414205;28;20041;-70
2023/06/05 06:19:25;;;;;;;4.53;2.35;;;;;;;23.09;86.68;100144.38;10415655;28;20473;-70
2023/06/05 06:24:26;;;;;;;5.40;2.30;;;;;;;23.38;86.18;100176.66;10413808;28;20540;-70
2023/06/05 06:29:27;;;;;;;5.13;2.20;;;;;;;23.32;85.32;100188.50;10450725;28;20045;-69
2023/06/05 06:34:29;;;;;;;7.15;2.15;;;;;;;23.92;84.42;100188.25;10454665;28;20068;-70
2023/06/05 06:39:31;;;;;;;3.65;2.10;;;;;;;24.44;82.36;100161.44;10436725;28;20475;-71
2023/06/05 06:44:32;;;;;;;5.40;2.35;;;;;;;24.94;80.93;100174.41;10451792;28;20048;-69
2023/06/05 06:49:34;;;;;;;7.18;2.08;;;;;;;24.65;80.50;100184.91;10422522;28;20072;-72
2023/06/05 06:54:37;;;;;;;5.57;1.90;;;;;;;24.67;80.21;100179.22;10416038;28;20451;-70
2023/06/05 06:59:41;;;;;;;4.10;2.30;;;;;;;24.61;79.10;100148.50;10428501;28;20041;-70
2023/06/05 07:04:44;;;;;;;6.68;2.25;;;;;;;24.69;78.31;100166.19;10414453;28;20037;-72
2023/06/05 07:09:45;;;;;;;4.50;1.90;;;;;;;24.74;78.22;100160.75;10442988;28;20068;-69
2023/06/05 07:14:46;;;;;;;3.92;2.15;;;;;;;25.04;77.81;100160.88;10452968;28;20045;-70
2023/06/05 07:19:47;;;;;;;3.92;1.90;;;;;;;25.31;76.19;100175.31;10453049;28;20067;-71
2023/06/05 07:24:48;;;;;;;5.45;2.13;;;;;;;24.95;75.02;100085.56;10448382;28;20048;-70
2023/06/05 07:29:50;;;;;;;4.97;2.15;;;;;;;25.39;73.83;100134.00;10449939;28;20041;-71
2023/06/05 07:34:51;;;;;;;4.53;2.35;;;;;;;25.56;73.96;100133.75;10449925;28;20082;-70
2023/06/05 07:39:52;;;;;;;5.78;2.28;;;;;;;25.28;74.06;100057.91;10449207;28;20582;-71
2023/06/05 07:44:52;;;;;;;5.80;2.50;;;;;;;25.92;72.39;100159.88;10452804;28;20037;-70
2023/06/05 07:50:00;;;;;;;5.72;1.90;;;;;;;25.74;71.48;100130.47;10449764;28;20060;-70
2023/06/05 07:55:01;;;;;;;3.17;1.75;;;;;;;25.95;71.26;100153.88;10450944;28;20075;-71
2023/06/05 08:00:04;;;;;;;3.92;2.10;;;;;;;26.07;70.27;100152.78;10457690;28;20076;-70
2023/06/05 08:05:06;;;;;;;5.13;1.95;;;;;;;26.44;70.13;100148.84;10455296;28;20053;-71
2023/06/05 08:10:08;;;;;;;6.82;2.15;;;;;;;26.72;68.67;100136.50;10459135;28;20053;-70
2023/06/05 08:15:09;;;;;;;3.63;1.92;;;;;;;27.04;67.69;100155.13;10437625;28;20072;-71
2023/06/05 08:20:10;;;;;;;3.10;1.88;;;;;;;27.09;68.07;100155.09;10438471;28;20541;-70
2023/06/05 08:25:11;;;;;;;3.33;1.95;;;;;;;26.41;68.08;100079.41;10457699;28;20106;-69
2023/06/05 08:30:12;;;;;;;3.10;1.70;;;;;;;26.49;67.10;100148.84;10459025;28;20094;-71
2023/06/05 08:35:13;;;;;;;3.20;1.75;;;;;;;26.66;66.54;100152.06;10458373;28;20522;-71
2023/06/05 08:40:18;;;;;;;3.13;1.85;;;;;;;26.28;66.30;100074.56;10440306;28;20033;-71
2023/06/05 08:45:19;;;;;;;4.38;1.92;;;;;;;27.13;65.54;100155.34;10454345;28;20043;-70
2023/06/05 08:50:20;;;;;;;4.78;1.98;;;;;;;26.82;65.37;100133.72;10457458;28;20046;-71
2023/06/05 08:55:21;;;;;;;3.83;1.80;;;;;;;26.85;64.92;100144.06;10457490;28;20064;-70
2023/06/05 09:00:22;;;;;;;4.55;1.95;;;;;;;27.07;63.63;100135.47;10452322;28;20370;-71
2023/06/05 09:05:23;;;;;;;3.85;2.00;;;;;;;27.27;63.24;100142.72;10449493;28;20053;-70
2023/06/05 09:10:28;;;;;;;3.83;1.90;;;;;;;27.54;61.25;100139.50;10456091;28;20067;-70
2023/06/05 09:15:34;;;;;;;4.50;2.10;;;;;;;27.18;61.33;100060.72;10457112;28;20036;-70
2023/06/05 09:20:40;;;;;;;13.40;2.30;;;;;;;27.59;61.67;100093.09;10457699;28;20048;-70
2023/06/05 09:25:48;;;;;;;3.72;1.88;;;;;;;27.58;60.28;100055.97;10456662;28;20131;-70
2023/06/05 09:31:02;;;;;;;2.88;1.50;;;;;;;27.20;61.26;100080.34;10456542;28;20044;-70
2023/06/05 09:36:05;;;;;;;4.07;1.92;;;;;;;27.30;62.57;100140.25;10456700;28;20037;-70
2023/06/05 09:41:18;;;;;;;3.85;1.80;;;;;;;27.05;63.89;100143.13;10456136;28;20076;-70
2023/06/05 09:46:19;;;;;;;3.70;2.00;;;;;;;27.22;63.87;100131.84;10456951;28;20033;-69
2023/06/05 09:51:20;;;;;;;3.60;1.75;;;;;;;27.29;63.42;100127.72;10429238;28;20433;-71
2023/06/05 09:56:22;;;;;;;4.82;1.80;;;;;;;27.07;64.46;100130.00;10445787;28;20036;-69
2023/06/05 10:01:24;;;;;;;5.40;2.10;;;;;;;27.32;65.56;100139.97;10441862;28;20507;-70
2023/06/05 10:06:28;;;;;;;5.18;2.25;;;;;;;27.18;66.26;100103.53;10414537;28;20088;-71
2023/06/05 10:11:29;;;;;;;4.82;2.10;;;;;;;26.72;65.43;100033.78;10414652;28;20053;-71
2023/06/05 10:16:30;;;;;;;31.13;4.05;;;;;;;27.54;65.70;100118.50;10421345;28;20048;-70
2023/06/05 10:21:32;;;;;;;3.25;1.98;;;;;;;27.40;63.89;100068.47;10456018;28;20086;-70
2023/06/05 10:26:42;;;;;;;3.25;2.17;;;;;;;27.94;64.55;100126.59;10455085;28;20047;-70
2023/06/05 10:31:52;;;;;;;5.38;2.40;;;;;;;27.19;65.55;100076.00;10454390;28;20094;-70
2023/06/05 10:37:03;;;;;;;4.90;2.28;;;;;;;27.52;65.21;100108.97;10437203;28;20040;-70
2023/06/05 10:42:04;;;;;;;16.20;2.10;;;;;;;27.69;64.20;100112.09;10454181;28;20056;-70
2023/06/05 10:47:33;;;;;;;3.63;1.52;;;;;;;27.98;62.89;100120.28;10442586;28;20493;-69
2023/06/05 10:52:37;;;;;;;3.83;1.30;;;;;;;27.96;61.84;100113.50;10454259;28;20045;-70
2023/06/05 10:58:03;;;;;;;2.15;1.10;;;;;;;28.16;61.83;100118.75;10453960;28;20091;-71
2023/06/05 11:03:06;;;;;;;3.60;1.00;;;;;;;28.06;62.35;100118.88;10453635;28;20076;-70
2023/06/05 11:08:15;;;;;;;1.90;0.80;;;;;;;27.60;59.90;100048.31;10439034;28;20058;-70
2023/06/05 11:13:15;;;;;;;9.18;1.40;;;;;;;27.82;61.57;100094.28;10413805;28;20132;-70
2023/06/05 11:18:30;;;;;;;2.90;0.73;;;;;;;27.94;58.74;100072.00;10395084;28;20124;-69
2023/06/05 11:23:31;;;;;;;4.00;0.90;;;;;;;28.06;59.81;100113.41;10423573;28;20033;-69
2023/06/05 11:28:44;;;;;;;1.13;0.82;;;;;;;27.83;59.58;100134.09;10411901;28;20050;-70
2023/06/05 11:33:45;;;;;;;10.90;1.27;;;;;;;27.72;61.44;100147.00;10424266;28;20125;-70
2023/06/05 11:38:54;;;;;;;8.55;1.35;;;;;;;27.40;61.58;100135.81;10459126;28;20049;-69
2023/06/05 11:43:56;;;;;;;6.90;1.30;;;;;;;27.24;62.62;100165.13;10452031;28;20102;-70
2023/06/05 11:48:57;;;;;;;4.77;1.23;;;;;;;26.57;63.16;100089.16;10460421;28;20047;-70
2023/06/05 11:53:59;;;;;;;5.40;1.25;;;;;;;26.32;64.84;100125.47;10425150;28;20523;-70
2023/06/05 11:59:00;;;;;;;10.88;1.20;;;;;;;26.16;65.78;100142.94;10431581;28;20136;-71
2023/06/05 12:04:05;;;;;;;1.77;0.90;;;;;;;26.04;65.96;100172.38;10422545;28;20138;-71
2023/06/05 12:09:10;;;;;;;3.17;0.95;;;;;;;25.86;67.69;100182.72;10453859;28;20056;-70
2023/06/05 12:14:12;;;;;;;1.20;0.82;;;;;;;25.66;66.29;100155.50;10415370;28;20184;-70
2023/06/05 12:19:17;;;;;;;2.08;1.00;;;;;;;25.71;66.07;100186.25;10418667;28;20049;-70
2023/06/05 12:24:28;;;;;;;2.85;1.08;;;;;;;25.32;67.25;100134.28;10418350;28;20155;-69
2023/06/05 12:29:31;;;;;;;2.08;1.30;;;;;;;25.62;66.50;100192.50;10417715;28;20056;-69
2023/06/05 12:34:44;;;;;;;5.57;1.50;;;;;;;25.24;67.47;100159.28;10417671;28;20041;-69
2023/06/05 12:39:45;;;;;;;5.97;2.10;;;;;;;24.85;68.42;100165.16;10411031;28;20045;-72
2023/06/05 12:44:46;;;;;;;6.13;1.60;;;;;;;24.87;68.30;100203.75;10410307;28;20037;-72
2023/06/05 12:49:47;;;;;;;7.22;1.60;;;;;;;24.81;69.44;100210.25;10423769;28;20041;-70
2023/06/05 12:54:48;;;;;;;2.25;1.40;;;;;;;24.30;69.25;100126.63;10458001;28;20624;-70
2023/06/05 12:59:50;;;;;;;4.43;1.70;;;;;;;24.40;70.10;100149.47;10457556;28;20037;-71
2023/06/05 13:04:51;;;;;;;4.70;1.58;;;;;;;24.75;69.30;100197.72;10458117;28;20037;-69
2023/06/05 13:09:51;;;;;;;3.40;1.50;;;;;;;24.25;69.13;100142.06;10457198;28;20060;-70
2023/06/05 13:14:52;;;;;;;4.93;1.60;;;;;;;24.15;69.96;100181.63;10457277;28;20041;-70
2023/06/05 13:19:53;;;;;;;4.28;1.80;;;;;;;24.12;71.74;100220.16;10456832;28;20037;-70
2023/06/05 13:24:54;;;;;;;2.55;1.70;;;;;;;23.54;72.58;100162.13;10457515;28;20045;-69
2023/06/05 13:29:54;;;;;;;8.23;4.13;;;;;;;23.81;72.78;100212.84;10457068;28;20040;-69
2023/06/05 13:34:57;;;;;;;4.95;1.95;;;;;;;23.57;72.06;100175.22;10456828;28;20044;-69
2023/06/05 13:39:57;;;;;;;2.90;1.73;;;;;;;23.87;72.67;100233.50;10456689;28;20037;-69
2023/06/05 13:44:58;;;;;;;7.22;2.00;;;;;;;23.93;72.78;100243.31;10439264;28;20529;-70
2023/06/05 13:50:00;;;;;;;4.22;1.55;;;;;;;23.78;73.03;100224.22;10456320;28;20091;-69
2023/06/05 13:55:00;;;;;;;3.38;1.58;;;;;;;23.87;73.23;100222.66;10455280;28;20511;-69
2023/06/05 14:00:02;;;;;;;8.80;2.40;;;;;;;23.25;72.97;100120.97;10455420;28;20083;-70
2023/06/05 14:05:03;;;;;;;5.03;1.20;;;;;;;23.61;73.59;100213.47;10455782;28;20397;-73
2023/06/05 14:10:04;;;;;;;3.45;1.60;;;;;;;23.05;73.95;100137.84;10455644;28;20066;-70
2023/06/05 14:15:05;;;;;;;5.88;1.35;;;;;;;22.81;73.98;100103.97;10455346;28;20127;-70
2023/06/05 14:20:07;;;;;;;3.20;1.50;;;;;;;23.19;74.45;100195.97;10455030;28;20045;-70
2023/06/05 14:25:10;;;;;;;5.68;1.73;;;;;;;22.96;75.35;100169.19;10428921;28;20551;-70
2023/06/05 14:30:12;;;;;;;5.10;1.43;;;;;;;23.01;75.59;100183.59;10410942;28;20053;-70
2023/06/05 14:35:14;;;;;;;11.02;1.90;;;;;;;23.06;75.53;100190.94;10413556;28;20041;-69
2023/06/05 14:40:15;;;;;;;28.15;3.13;;;;;;;23.52;75.10;100207.69;10413496;28;20049;-69
2023/06/05 14:45:16;;;;;;;3.70;1.10;;;;;;;23.55;73.12;100154.84;10413907;28;20049;-70
2023/06/05 14:50:17;;;;;;;2.60;1.35;;;;;;;23.99;73.34;100242.31;10395190;28;20041;-71
2023/06/05 14:55:18;;;;;;;4.28;0.82;;;;;;;23.80;71.64;100225.59;10412549;28;20493;-69
2023/06/05 15:00:19;;;;;;;2.38;0.80;;;;;;;23.43;71.56;100144.19;10412898;28;20056;-69
2023/06/05 15:05:20;;;;;;;3.22;0.70;;;;;;;23.75;71.75;100266.22;10412442;28;20120;-70
2023/06/05 15:10:21;;;;;;;4.50;1.00;;;;;;;23.31;72.30;100238.38;10421220;28;20151;-69
2023/06/05 15:15:22;;;;;;;3.78;0.65;;;;;;;22.68;72.46;100152.03;10421964;28;20401;-70
2023/06/05 15:20:23;;;;;;;5.68;0.80;;;;;;;23.68;72.41;100274.53;10420386;28;20041;-71
2023/06/05 15:25:25;;;;;;;4.15;1.20;;;;;;;23.82;72.57;100287.72;10420861;28;20053;-69
2023/06/05 15:30:25;;;;;;;3.22;1.00;;;;;;;23.24;74.30;100290.06;10419908;28;20529;-70
2023/06/05 15:35:27;;;;;;;5.78;1.10;;;;;;;22.91;76.18;100320.75;10420430;28;20045;-69
2023/06/05 15:40:28;;;;;;;3.25;1.05;;;;;;;22.54;77.45;100307.78;10419985;28;20041;-69
2023/06/05 15:45:29;;;;;;;2.05;0.90;;;;;;;22.31;78.16;100304.19;10420057;28;20048;-69
2023/06/05 15:50:29;;;;;;;5.63;2.17;;;;;;;22.11;79.22;100320.09;10420490;28;20140;-70
2023/06/05 15:55:30;;;;;;;2.22;1.13;;;;;;;21.97;79.69;100316.03;10448288;28;20441;-73
2023/06/05 16:00:31;;;;;;;2.67;1.27;;;;;;;21.64;80.23;100304.91;10460139;28;20067;-70
2023/06/05 16:05:32;;;;;;;3.67;1.90;;;;;;;21.53;81.10;100327.41;10420928;28;20045;-69
2023/06/05 16:10:33;;;;;;;5.82;1.38;;;;;;;21.41;81.67;100351.75;10418523;28;20163;-70
2023/06/05 16:15:33;;;;;;;2.33;1.48;;;;;;;21.36;82.62;100378.69;10418913;28;20061;-71
2023/06/05 16:20:34;;;;;;;5.90;1.80;;;;;;;21.14;83.02;100334.41;10418516;28;20483;-70
2023/06/05 16:25:36;;;;;;;5.35;1.10;;;;;;;21.22;83.30;100377.28;10418477;28;20041;-71
2023/06/05 16:30:36;;;;;;;2.67;1.20;;;;;;;21.27;83.91;100385.50;10400815;28;20033;-70
2023/06/05 16:35:37;;;;;;;2.28;1.10;;;;;;;20.63;84.43;100306.28;10400348;28;20060;-69
2023/06/05 16:40:38;;;;;;;4.95;1.08;;;;;;;21.03;85.05;100389.25;10400096;28;20065;-70
2023/06/05 16:45:39;;;;;;;1.98;0.95;;;;;;;20.98;85.12;100392.69;10415615;28;20555;-72
2023/06/05 16:50:43;;;;;;;4.10;1.25;;;;;;;20.92;85.12;100407.94;10437431;28;20064;-72
2023/06/05 16:55:44;;;;;;;3.60;1.30;;;;;;;20.78;85.41;100406.50;10445554;28;20044;-72
2023/06/05 17:00:45;;;;;;;5.72;1.33;;;;;;;20.24;85.90;100319.38;10436783;28;20045;-74
2023/06/05 17:05:46;;;;;;;2.25;1.33;;;;;;;20.62;86.29;100382.94;10416095;28;20083;-72
2023/06/05 17:10:47;;;;;;;4.22;1.80;;;;;;;20.58;86.76;100401.47;10423650;28;20459;-76
2023/06/05 17:15:48;;;;;;;3.55;1.30;;;;;;;20.39;87.54;100392.59;10436640;28;20091;-76
2023/06/05 17:20:49;;;;;;;2.67;1.60;;;;;;;20.35;88.19;100390.59;10432998;28;20053;-77
2023/06/05 17:25:51;;;;;;;7.10;2.70;;;;;;;19.98;88.63;100355.66;10417236;28;20037;-76
2023/06/05 17:30:52;;;;;;;4.43;2.60;;;;;;;19.92;88.50;100351.16;10414046;28;20037;-78
2023/06/05 17:35:53;;;;;;;5.10;2.28;;;;;;;20.17;89.24;100372.59;10415569;28;20124;-74
2023/06/05 17:40:53;;;;;;;4.45;2.33;;;;;;;20.04;89.50;100366.34;10415245;28;20095;-75
2023/06/05 17:45:54;;;;;;;3.95;2.38;;;;;;;20.32;89.40;100402.66;10412164;28;20053;-74
2023/06/05 17:50:55;;;;;;;5.30;2.10;;;;;;;20.40;89.78;100423.06;10415073;28;20589;-74
2023/06/05 17:55:56;;;;;;;6.65;2.58;;;;;;;19.97;90.29;100340.53;10413721;28;20108;-73
2023/06/05 18:00:57;;;;;;;7.03;3.53;;;;;;;20.36;90.58;100406.53;10415061;28;20044;-72
2023/06/05 18:05:57;;;;;;;4.53;2.67;;;;;;;20.38;90.94;100431.41;10424427;28;20498;-72
2023/06/05 18:10:58;;;;;;;4.88;2.35;;;;;;;20.42;90.92;100432.59;10414567;28;20053;-72
2023/06/05 18:15:59;;;;;;;4.20;1.80;;;;;;;20.40;91.12;100437.41;10413424;28;20159;-72
2023/06/05 18:21:00;;;;;;;4.88;1.80;;;;;;;20.33;91.43;100422.38;10425444;28;20048;-72
2023/06/05 18:26:01;;;;;;;3.35;1.50;;;;;;;20.28;91.65;100428.44;10414141;28;20072;-72
2023/06/05 18:31:02;;;;;;;2.65;1.63;;;;;;;20.34;91.85;100442.88;10413614;28;20095;-72
2023/06/05 18:36:03;;;;;;;4.43;1.50;;;;;;;20.28;92.18;100431.97;10413021;28;20037;-72
2023/06/05 18:41:04;;;;;;;3.22;1.80;;;;;;;20.24;92.45;100427.25;10422962;28;20132;-73
2023/06/05 18:46:05;;;;;;;4.78;1.88;;;;;;;20.26;93.11;100435.97;10413124;28;20135;-72
2023/06/05 18:51:06;;;;;;;4.80;1.70;;;;;;;20.29;93.30;100428.22;10413912;28;20042;-72
2023/06/05 18:56:06;;;;;;;3.40;1.58;;;;;;;19.82;92.88;100354.44;10417760;28;20114;-72
2023/06/05 19:01:07;;;;;;;3.70;1.65;;;;;;;20.22;93.29;100427.50;10453036;28;20456;-72
2023/06/05 19:06:08;;;;;;;3.38;1.65;;;;;;;20.09;93.43;100434.94;10454119;28;20044;-72
2023/06/05 19:11:10;;;;;;;2.60;1.50;;;;;;;20.12;93.56;100456.06;10454525;28;20139;-73
2023/06/05 19:16:10;;;;;;;3.00;1.60;;;;;;;20.08;93.86;100441.41;10453742;28;20417;-72
2023/06/05 19:21:12;;;;;;;2.50;1.63;;;;;;;19.88;94.07;100429.00;10452116;28;20049;-72
2023/06/05 19:26:13;;;;;;;4.50;1.85;;;;;;;19.96;94.00;100449.44;10440298;28;20447;-72
2023/06/05 19:31:14;;;;;;;2.45;1.70;;;;;;;19.55;93.89;100405.94;10453920;28;20123;-72
2023/06/05 19:36:15;;;;;;;3.83;1.95;;;;;;;19.42;94.20;100416.88;10452898;28;20045;-72
2023/06/05 19:41:16;;;;;;;2.53;1.58;;;;;;;19.66;94.47;100473.66;10453355;28;20107;-72
2023/06/05 19:46:17;;;;;;;3.60;2.10;;;;;;;19.48;95.33;100472.56;10454096;28;20040;-72
2023/06/05 19:51:18;;;;;;;3.40;2.13;;;;;;;19.27;96.17;100465.72;10452687;28;20037;-72
2023/06/05 19:56:19;;;;;;;3.22;2.17;;;;;;;19.23;97.05;100486.06;10460260;28;20135;-72
2023/06/05 20:01:20;;;;;;;3.83;2.30;;;;;;;19.05;97.33;100475.25;10460670;28;20404;-72
2023/06/05 20:06:21;;;;;;;3.70;2.40;;;;;;;18.99;97.90;100493.09;10459795;28;20056;-72
2023/06/05 20:11:21;;;;;;;6.90;2.33;;;;;;;18.93;98.31;100493.97;10459429;28;20130;-72
2023/06/05 20:16:22;;;;;;;3.60;2.35;;;;;;;18.81;98.33;100479.56;10453218;28;20060;-72
2023/06/05 20:21:23;;;;;;;3.30;2.15;;;;;;;18.69;98.50;100474.88;10427747;28;20600;-73
2023/06/05 20:26:24;;;;;;;4.05;2.25;;;;;;;18.75;98.75;100483.16;10417967;28;20041;-72
2023/06/05 20:31:25;;;;;;;3.63;1.90;;;;;;;18.60;98.60;100464.59;10418484;28;20046;-71
2023/06/05 20:36:29;;;;;;;3.33;2.30;;;;;;;18.55;98.75;100453.69;10418270;28;20511;-72
2023/06/05 20:41:30;;;;;;;3.45;2.50;;;;;;;18.41;98.79;100417.97;10400229;28;20539;-72
2023/06/05 20:46:35;;;;;;;2.67;2.25;;;;;;;18.42;98.70;100428.50;10417759;28;20042;-72
2023/06/05 20:51:36;;;;;;;4.50;2.40;;;;;;;18.47;98.76;100462.81;10417532;28;20128;-72
2023/06/05 20:56:37;;;;;;;5.28;2.55;;;;;;;18.47;99.21;100476.28;10417409;28;20584;-72
2023/06/05 21:01:38;;;;;;;3.63;2.28;;;;;;;18.39;99.88;100477.34;10416721;28;20409;-73
2023/06/05 21:06:39;;;;;;;6.28;2.60;;;;;;;18.34;100.00;100481.75;10416374;28;20417;-73
2023/06/05 21:11:40;;;;;;;4.70;2.88;;;;;;;17.70;100.00;100400.94;10417657;28;20053;-74
2023/06/05 21:16:41;;;;;;;3.92;2.60;;;;;;;18.18;100.00;100483.88;10415749;28;20128;-72
2023/06/05 21:21:45;;;;;;;4.63;2.80;;;;;;;18.20;100.00;100486.34;10416070;28;20417;-73
2023/06/05 21:26:46;;;;;;;4.38;3.28;;;;;;;18.12;100.00;100475.84;10416107;28;20041;-72
2023/06/05 21:31:47;;;;;;;3.83;3.00;;;;;;;18.09;100.00;100479.78;10416027;28;20048;-73
2023/06/05 21:36:48;;;;;;;5.10;3.30;;;;;;;17.99;100.00;100463.28;10415714;28;20048;-72
2023/06/05 21:41:50;;;;;;;4.57;3.60;;;;;;;17.65;100.00;100395.41;10415657;28;20045;-72
2023/06/05 21:46:50;;;;;;;5.50;3.67;;;;;;;17.70;100.00;100381.31;10416348;28;20041;-72
2023/06/05 21:51:51;;;;;;;5.63;3.85;;;;;;;18.19;100.00;100452.44;10415313;28;20042;-73
2023/06/05 21:56:52;;;;;;;5.88;3.95;;;;;;;17.85;100.00;100386.44;10414981;28;20557;-73
2023/06/05 22:01:53;;;;;;;5.53;4.18;;;;;;;18.35;100.00;100478.81;10414117;28;20045;-73
2023/06/05 22:06:53;;;;;;;6.10;4.30;;;;;;;18.31;100.00;100463.31;10414326;28;20091;-72
2023/06/05 22:11:54;;;;;;;5.60;4.53;;;;;;;18.34;100.00;100492.50;10413888;28;20092;-72
2023/06/05 22:16:56;;;;;;;4.82;4.35;;;;;;;18.17;100.00;100474.16;10395954;28;20045;-72
2023/06/05 22:21:57;;;;;;;5.88;3.78;;;;;;;17.36;100.00;100352.97;10414442;28;20480;-72
2023/06/05 22:26:58;;;;;;;4.40;4.00;;;;;;;18.20;100.00;100495.25;10414463;28;20038;-72
2023/06/05 22:31:59;;;;;;;5.03;4.50;;;;;;;18.25;100.00;100500.81;10413177;28;20041;-72
2023/06/05 22:37:03;;;;;;;6.35;4.55;;;;;;;17.78;100.00;100424.94;10414208;28;20136;-72
2023/06/05 22:42:05;;;;;;;4.97;4.30;;;;;;;18.23;100.00;100505.56;10412968;28;20099;-72
2023/06/05 22:47:08;;;;;;;5.50;4.30;;;;;;;17.64;100.00;100398.28;10413449;28;20044;-72
2023/06/05 22:52:09;;;;;;;4.32;3.92;;;;;;;18.16;100.00;100494.03;10413983;28;20103;-73
2023/06/05 22:57:10;;;;;;;5.25;4.30;;;;;;;17.91;100.00;100468.91;10413245;28;20048;-72
2023/06/05 23:02:11;;;;;;;7.10;4.63;;;;;;;18.00;100.00;100478.38;10412504;28;20512;-72